General Aviation Weather

Text Reports

Enter one or more of the following location identifiers separated by a space:

Zip Code, Four-Character ICAO or Three-Character IATA airport codes.

METAR - Aviation Routine Weather Report
KSEZ - Sedona, Arizona
Updated at 5:15 PM GMT on January 24, 2017 (10:15 AM MST):
METAR KSEZ 241715Z AUTO 16003KT 10SM SCT011 BKN017 OVC050 01/00 A2987 RMK AO2
TAF - Terminal Area Forecast
KSEZ - Sedona, Arizona
Updated at 5:15 PM GMT on January 24, 2017 (10:15 AM MST):
No TAF is currently available for this location.
Decoded:
No decoded TAF is available.
PIREP - Pilot Weather Report
KSEZ - Sedona, Arizona
Updated at 5:15 PM GMT on January 24, 2017 (10:15 AM MST):
No PIREP is currently available for this location.
AIRMET - Airmens Meteorological Information
KSEZ - Sedona, Arizona
Updated at 5:15 PM GMT on January 24, 2017 (10:15 AM MST):
No AIRMET is currently available for this location.
SIGMET - Significant Meteorological Information
KSEZ - Sedona, Arizona
Updated at 5:15 PM GMT on January 24, 2017 (10:15 AM MST):
No SIGMET is currently available for this location.
NOTAM - Notice to Airmen
KSEZ - Sedona, Arizona
Updated at 5:15 PM GMT on January 24, 2017 (10:15 AM MST):
No NOTAM is currently available for this location.
Forecast Area
KSEZ - Sedona, Arizona
Updated at 5:15 PM GMT on January 24, 2017 (10:15 AM MST):
No NOTAM is currently available for this location.
Aviation Weather Maps